sensor_id;sensor_type;location;lat;lon;timestamp;P1;durP1;ratioP1;P2;durP2;ratioP2
63276;SDS011;49403;51.046;13.780;2022-11-18T00:00:11;15.75;;;9.63;;
63276;SDS011;49403;51.046;13.780;2022-11-18T00:00:42;15.25;;;9.48;;
63276;SDS011;49403;51.046;13.780;2022-11-18T00:01:14;16.83;;;9.00;;
63276;SDS011;49403;51.046;13.780;2022-11-18T00:01:47;13.35;;;9.00;;
63276;SDS011;49403;51.046;13.780;2022-11-18T00:02:18;16.80;;;9.50;;
63276;SDS011;49403;51.046;13.780;2022-11-18T00:02:48;14.05;;;9.20;;
63276;SDS011;49403;51.046;13.780;2022-11-18T00:03:19;14.10;;;8.68;;
63276;SDS011;49403;51.046;13.780;2022-11-18T00:03:50;18.15;;;10.13;;
63276;SDS011;49403;51.046;13.780;2022-11-18T00:04:21;15.57;;;9.55;;
63276;SDS011;49403;51.046;13.780;2022-11-18T00:04:52;16.25;;;9.50;;
63276;SDS011;49403;51.046;13.780;2022-11-18T00:05:23;16.73;;;10.10;;
63276;SDS011;49403;51.046;13.780;2022-11-18T00:05:55;15.93;;;9.40;;
63276;SDS011;49403;51.046;13.780;2022-11-18T00:06:27;16.58;;;9.52;;
63276;SDS011;49403;51.046;13.780;2022-11-18T00:06:59;16.40;;;9.23;;
63276;SDS011;49403;51.046;13.780;2022-11-18T00:07:29;14.70;;;9.68;;
63276;SDS011;49403;51.046;13.780;2022-11-18T00:08:00;15.85;;;9.65;;
63276;SDS011;49403;51.046;13.780;2022-11-18T00:08:32;15.00;;;9.98;;
63276;SDS011;49403;51.046;13.780;2022-11-18T00:09:03;16.30;;;9.98;;
63276;SDS011;49403;51.046;13.780;2022-11-18T00:09:34;15.02;;;9.60;;
63276;SDS011;49403;51.046;13.780;2022-11-18T00:10:05;18.20;;;9.60;;
63276;SDS011;49403;51.046;13.780;2022-11-18T00:10:36;15.38;;;9.93;;
63276;SDS011;49403;51.046;13.780;2022-11-18T00:11:12;15.93;;;9.93;;
63276;SDS011;49403;51.046;13.780;2022-11-18T00:12:07;16.15;;;9.57;;
63276;SDS011;49403;51.046;13.780;2022-11-18T00:12:56;14.93;;;9.43;;
63276;SDS011;49403;51.046;13.780;2022-11-18T00:13:45;16.15;;;9.88;;
63276;SDS011;49403;51.046;13.780;2022-11-18T00:14:34;16.23;;;9.52;;
63276;SDS011;49403;51.046;13.780;2022-11-18T00:15:05;15.70;;;9.82;;
63276;SDS011;49403;51.046;13.780;2022-11-18T00:15:36;16.45;;;10.18;;
63276;SDS011;49403;51.046;13.780;2022-11-18T00:16:08;16.52;;;9.85;;
63276;SDS011;49403;51.046;13.780;2022-11-18T00:16:40;13.45;;;8.98;;
63276;SDS011;49403;51.046;13.780;2022-11-18T00:17:11;15.82;;;9.65;;
63276;SDS011;49403;51.046;13.780;2022-11-18T00:17:42;17.13;;;9.63;;
63276;SDS011;49403;51.046;13.780;2022-11-18T00:18:12;16.15;;;9.65;;
63276;SDS011;49403;51.046;13.780;2022-11-18T00:18:43;16.98;;;9.50;;
63276;SDS011;49403;51.046;13.780;2022-11-18T00:19:14;16.98;;;10.10;;
63276;SDS011;49403;51.046;13.780;2022-11-18T00:19:45;15.50;;;9.30;;
63276;SDS011;49403;51.046;13.780;2022-11-18T00:20:16;15.75;;;9.45;;
63276;SDS011;49403;51.046;13.780;2022-11-18T00:20:47;15.55;;;10.02;;
63276;SDS011;49403;51.046;13.780;2022-11-18T00:21:18;14.35;;;9.38;;
63276;SDS011;49403;51.046;13.780;2022-11-18T00:21:49;16.85;;;9.98;;
63276;SDS011;49403;51.046;13.780;2022-11-18T00:22:20;15.15;;;9.48;;
63276;SDS011;49403;51.046;13.780;2022-11-18T00:22:50;17.10;;;9.93;;
63276;SDS011;49403;51.046;13.780;2022-11-18T00:23:21;16.02;;;10.05;;
63276;SDS011;49403;51.046;13.780;2022-11-18T00:23:52;17.00;;;9.80;;
63276;SDS011;49403;51.046;13.780;2022-11-18T00:24:23;17.90;;;10.50;;
63276;SDS011;49403;51.046;13.780;2022-11-18T00:24:54;14.27;;;9.63;;
63276;SDS011;49403;51.046;13.780;2022-11-18T00:25:25;17.67;;;10.02;;
63276;SDS011;49403;51.046;13.780;2022-11-18T00:26:00;16.17;;;10.00;;
63276;SDS011;49403;51.046;13.780;2022-11-18T00:26:37;16.63;;;9.70;;
63276;SDS011;49403;51.046;13.780;2022-11-18T00:27:08;15.77;;;9.27;;
63276;SDS011;49403;51.046;13.780;2022-11-18T00:27:39;15.93;;;10.30;;
63276;SDS011;49403;51.046;13.780;2022-11-18T00:28:09;16.75;;;10.18;;
63276;SDS011;49403;51.046;13.780;2022-11-18T00:28:40;17.70;;;10.50;;
63276;SDS011;49403;51.046;13.780;2022-11-18T00:29:11;16.05;;;9.88;;
63276;SDS011;49403;51.046;13.780;2022-11-18T00:29:42;17.98;;;10.20;;
63276;SDS011;49403;51.046;13.780;2022-11-18T00:30:13;18.30;;;10.40;;
63276;SDS011;49403;51.046;13.780;2022-11-18T00:30:44;14.88;;;9.48;;
63276;SDS011;49403;51.046;13.780;2022-11-18T00:31:15;17.33;;;10.10;;
63276;SDS011;49403;51.046;13.780;2022-11-18T00:31:45;16.27;;;9.48;;
63276;SDS011;49403;51.046;13.780;2022-11-18T00:32:16;16.67;;;10.20;;
63276;SDS011;49403;51.046;13.780;2022-11-18T00:32:47;14.95;;;9.43;;
63276;SDS011;49403;51.046;13.780;2022-11-18T00:33:18;15.18;;;9.68;;
63276;SDS011;49403;51.046;13.780;2022-11-18T00:33:49;18.02;;;10.32;;
63276;SDS011;49403;51.046;13.780;2022-11-18T00:34:20;17.33;;;10.13;;
63276;SDS011;49403;51.046;13.780;2022-11-18T00:34:51;18.38;;;10.45;;
63276;SDS011;49403;51.046;13.780;2022-11-18T00:35:21;16.63;;;9.95;;
63276;SDS011;49403;51.046;13.780;2022-11-18T00:35:53;15.80;;;10.07;;
63276;SDS011;49403;51.046;13.780;2022-11-18T00:36:24;17.08;;;10.13;;
63276;SDS011;49403;51.046;13.780;2022-11-18T00:36:55;17.15;;;9.93;;
63276;SDS011;49403;51.046;13.780;2022-11-18T00:37:25;17.50;;;10.30;;
63276;SDS011;49403;51.046;13.780;2022-11-18T00:37:56;17.13;;;10.30;;
63276;SDS011;49403;51.046;13.780;2022-11-18T00:38:28;19.90;;;10.50;;
63276;SDS011;49403;51.046;13.780;2022-11-18T00:38:59;16.83;;;9.75;;
63276;SDS011;49403;51.046;13.780;2022-11-18T00:39:30;20.48;;;11.10;;
63276;SDS011;49403;51.046;13.780;2022-11-18T00:40:00;19.23;;;10.30;;
63276;SDS011;49403;51.046;13.780;2022-11-18T00:40:31;17.13;;;10.52;;
63276;SDS011;49403;51.046;13.780;2022-11-18T00:41:05;16.92;;;10.38;;
63276;SDS011;49403;51.046;13.780;2022-11-18T00:41:37;16.63;;;9.90;;
63276;SDS011;49403;51.046;13.780;2022-11-18T00:42:27;16.77;;;10.35;;
63276;SDS011;49403;51.046;13.780;2022-11-18T00:43:16;14.55;;;9.40;;
63276;SDS011;49403;51.046;13.780;2022-11-18T00:43:46;18.25;;;10.02;;
63276;SDS011;49403;51.046;13.780;2022-11-18T00:44:17;16.50;;;10.50;;
63276;SDS011;49403;51.046;13.780;2022-11-18T00:44:48;16.40;;;10.38;;
63276;SDS011;49403;51.046;13.780;2022-11-18T00:45:19;18.13;;;10.13;;
63276;SDS011;49403;51.046;13.780;2022-11-18T00:45:50;19.10;;;11.02;;
63276;SDS011;49403;51.046;13.780;2022-11-18T00:46:21;23.85;;;10.13;;
63276;SDS011;49403;51.046;13.780;2022-11-18T00:46:52;16.73;;;10.23;;
63276;SDS011;49403;51.046;13.780;2022-11-18T00:47:23;21.38;;;10.48;;
63276;SDS011;49403;51.046;13.780;2022-11-18T00:47:54;16.58;;;10.52;;
63276;SDS011;49403;51.046;13.780;2022-11-18T00:48:25;18.83;;;10.52;;
63276;SDS011;49403;51.046;13.780;2022-11-18T00:48:56;17.27;;;10.55;;
63276;SDS011;49403;51.046;13.780;2022-11-18T00:49:27;16.23;;;10.40;;
63276;SDS011;49403;51.046;13.780;2022-11-18T00:49:57;17.45;;;10.60;;
63276;SDS011;49403;51.046;13.780;2022-11-18T00:50:28;18.05;;;10.60;;
63276;SDS011;49403;51.046;13.780;2022-11-18T00:51:06;20.20;;;10.85;;
63276;SDS011;49403;51.046;13.780;2022-11-18T00:51:40;16.85;;;10.15;;
63276;SDS011;49403;51.046;13.780;2022-11-18T00:52:11;14.90;;;9.57;;
63276;SDS011;49403;51.046;13.780;2022-11-18T00:52:41;16.23;;;10.00;;
63276;SDS011;49403;51.046;13.780;2022-11-18T00:53:13;18.30;;;10.35;;
63276;SDS011;49403;51.046;13.780;2022-11-18T00:53:43;16.92;;;10.13;;
63276;SDS011;49403;51.046;13.780;2022-11-18T00:54:14;17.85;;;10.80;;
63276;SDS011;49403;51.046;13.780;2022-11-18T00:54:45;18.17;;;10.55;;
63276;SDS011;49403;51.046;13.780;2022-11-18T00:55:16;17.77;;;10.27;;
63276;SDS011;49403;51.046;13.780;2022-11-18T00:55:47;17.15;;;10.35;;
63276;SDS011;49403;51.046;13.780;2022-11-18T00:56:18;16.67;;;10.73;;
63276;SDS011;49403;51.046;13.780;2022-11-18T00:56:49;17.58;;;10.45;;
63276;SDS011;49403;51.046;13.780;2022-11-18T00:57:19;17.63;;;10.45;;
63276;SDS011;49403;51.046;13.780;2022-11-18T00:57:50;17.42;;;10.35;;
63276;SDS011;49403;51.046;13.780;2022-11-18T00:58:22;16.88;;;10.27;;
63276;SDS011;49403;51.046;13.780;2022-11-18T00:58:53;16.85;;;10.45;;
63276;SDS011;49403;51.046;13.780;2022-11-18T00:59:24;16.02;;;10.30;;
63276;SDS011;49403;51.046;13.780;2022-11-18T00:59:55;17.23;;;10.52;;
63276;SDS011;49403;51.046;13.780;2022-11-18T01:00:25;16.02;;;10.20;;
63276;SDS011;49403;51.046;13.780;2022-11-18T01:00:57;18.55;;;10.18;;
63276;SDS011;49403;51.046;13.780;2022-11-18T01:01:28;15.20;;;10.00;;
63276;SDS011;49403;51.046;13.780;2022-11-18T01:01:59;18.85;;;10.38;;
63276;SDS011;49403;51.046;13.780;2022-11-18T01:02:29;15.75;;;10.18;;
63276;SDS011;49403;51.046;13.780;2022-11-18T01:03:00;19.95;;;10.63;;
63276;SDS011;49403;51.046;13.780;2022-11-18T01:03:31;18.02;;;10.80;;
63276;SDS011;49403;51.046;13.780;2022-11-18T01:04:02;16.80;;;9.98;;
63276;SDS011;49403;51.046;13.780;2022-11-18T01:04:33;17.95;;;10.13;;
63276;SDS011;49403;51.046;13.780;2022-11-18T01:05:04;17.42;;;10.43;;
63276;SDS011;49403;51.046;13.780;2022-11-18T01:05:35;17.58;;;10.32;;
63276;SDS011;49403;51.046;13.780;2022-11-18T01:06:07;18.75;;;10.48;;
63276;SDS011;49403;51.046;13.780;2022-11-18T01:06:37;16.23;;;10.18;;
63276;SDS011;49403;51.046;13.780;2022-11-18T01:07:08;18.40;;;10.45;;
63276;SDS011;49403;51.046;13.780;2022-11-18T01:07:39;15.63;;;10.35;;
63276;SDS011;49403;51.046;13.780;2022-11-18T01:08:11;17.25;;;10.60;;
63276;SDS011;49403;51.046;13.780;2022-11-18T01:08:42;18.80;;;10.63;;
63276;SDS011;49403;51.046;13.780;2022-11-18T01:09:13;20.23;;;11.23;;
63276;SDS011;49403;51.046;13.780;2022-11-18T01:09:44;18.40;;;10.65;;
63276;SDS011;49403;51.046;13.780;2022-11-18T01:10:15;17.23;;;10.23;;
63276;SDS011;49403;51.046;13.780;2022-11-18T01:10:46;17.33;;;10.48;;
63276;SDS011;49403;51.046;13.780;2022-11-18T01:11:18;18.20;;;11.02;;
63276;SDS011;49403;51.046;13.780;2022-11-18T01:12:09;16.17;;;9.77;;
63276;SDS011;49403;51.046;13.780;2022-11-18T01:12:59;17.60;;;10.02;;
63276;SDS011;49403;51.046;13.780;2022-11-18T01:13:48;18.00;;;10.55;;
63276;SDS011;49403;51.046;13.780;2022-11-18T01:14:22;18.27;;;10.25;;
63276;SDS011;49403;51.046;13.780;2022-11-18T01:14:54;19.83;;;11.00;;
63276;SDS011;49403;51.046;13.780;2022-11-18T01:15:24;19.88;;;10.80;;
63276;SDS011;49403;51.046;13.780;2022-11-18T01:15:56;20.08;;;11.18;;
63276;SDS011;49403;51.046;13.780;2022-11-18T01:16:27;18.42;;;10.77;;
63276;SDS011;49403;51.046;13.780;2022-11-18T01:16:59;17.38;;;11.02;;
63276;SDS011;49403;51.046;13.780;2022-11-18T01:17:30;20.38;;;10.55;;
63276;SDS011;49403;51.046;13.780;2022-11-18T01:18:01;19.23;;;11.18;;
63276;SDS011;49403;51.046;13.780;2022-11-18T01:18:32;16.45;;;10.57;;
63276;SDS011;49403;51.046;13.780;2022-11-18T01:19:03;17.60;;;10.50;;
63276;SDS011;49403;51.046;13.780;2022-11-18T01:19:33;18.73;;;10.65;;
63276;SDS011;49403;51.046;13.780;2022-11-18T01:20:05;18.08;;;10.82;;
63276;SDS011;49403;51.046;13.780;2022-11-18T01:20:36;16.85;;;10.82;;
63276;SDS011;49403;51.046;13.780;2022-11-18T01:21:07;17.75;;;10.82;;
63276;SDS011;49403;51.046;13.780;2022-11-18T01:21:38;18.58;;;10.68;;
63276;SDS011;49403;51.046;13.780;2022-11-18T01:22:09;19.83;;;11.27;;
63276;SDS011;49403;51.046;13.780;2022-11-18T01:22:39;18.98;;;11.07;;
63276;SDS011;49403;51.046;13.780;2022-11-18T01:23:10;19.30;;;10.80;;
63276;SDS011;49403;51.046;13.780;2022-11-18T01:23:41;17.55;;;10.85;;
63276;SDS011;49403;51.046;13.780;2022-11-18T01:24:12;17.80;;;10.70;;
63276;SDS011;49403;51.046;13.780;2022-11-18T01:24:43;18.48;;;10.70;;
63276;SDS011;49403;51.046;13.780;2022-11-18T01:25:14;19.42;;;11.27;;
63276;SDS011;49403;51.046;13.780;2022-11-18T01:25:46;18.80;;;11.57;;
63276;SDS011;49403;51.046;13.780;2022-11-18T01:26:18;18.58;;;10.68;;
63276;SDS011;49403;51.046;13.780;2022-11-18T01:26:49;19.90;;;11.20;;
63276;SDS011;49403;51.046;13.780;2022-11-18T01:27:19;18.65;;;11.20;;
63276;SDS011;49403;51.046;13.780;2022-11-18T01:27:50;17.33;;;11.00;;
63276;SDS011;49403;51.046;13.780;2022-11-18T01:28:21;18.08;;;11.23;;
63276;SDS011;49403;51.046;13.780;2022-11-18T01:28:55;18.90;;;10.82;;
63276;SDS011;49403;51.046;13.780;2022-11-18T01:29:26;18.42;;;11.10;;
63276;SDS011;49403;51.046;13.780;2022-11-18T01:29:57;18.08;;;11.10;;
63276;SDS011;49403;51.046;13.780;2022-11-18T01:30:28;19.65;;;11.43;;
63276;SDS011;49403;51.046;13.780;2022-11-18T01:31:02;17.45;;;10.70;;
63276;SDS011;49403;51.046;13.780;2022-11-18T01:31:34;16.88;;;10.02;;
63276;SDS011;49403;51.046;13.780;2022-11-18T01:32:06;18.90;;;10.82;;
63276;SDS011;49403;51.046;13.780;2022-11-18T01:32:37;17.73;;;10.52;;
63276;SDS011;49403;51.046;13.780;2022-11-18T01:33:08;20.60;;;10.82;;
63276;SDS011;49403;51.046;13.780;2022-11-18T01:33:38;17.77;;;11.38;;
63276;SDS011;49403;51.046;13.780;2022-11-18T01:34:10;17.98;;;10.68;;
63276;SDS011;49403;51.046;13.780;2022-11-18T01:34:41;16.23;;;10.73;;
63276;SDS011;49403;51.046;13.780;2022-11-18T01:35:11;18.08;;;10.48;;
63276;SDS011;49403;51.046;13.780;2022-11-18T01:35:42;17.35;;;10.85;;
63276;SDS011;49403;51.046;13.780;2022-11-18T01:36:14;16.90;;;10.40;;
63276;SDS011;49403;51.046;13.780;2022-11-18T01:36:46;18.88;;;11.10;;
63276;SDS011;49403;51.046;13.780;2022-11-18T01:37:16;16.75;;;10.63;;
63276;SDS011;49403;51.046;13.780;2022-11-18T01:37:48;17.67;;;10.27;;
63276;SDS011;49403;51.046;13.780;2022-11-18T01:38:18;18.30;;;10.40;;
63276;SDS011;49403;51.046;13.780;2022-11-18T01:38:49;17.38;;;10.45;;
63276;SDS011;49403;51.046;13.780;2022-11-18T01:39:21;16.90;;;10.25;;
63276;SDS011;49403;51.046;13.780;2022-11-18T01:39:52;19.35;;;10.30;;
63276;SDS011;49403;51.046;13.780;2022-11-18T01:40:22;17.77;;;10.43;;
63276;SDS011;49403;51.046;13.780;2022-11-18T01:40:57;18.00;;;10.65;;
63276;SDS011;49403;51.046;13.780;2022-11-18T01:41:28;19.55;;;11.00;;
63276;SDS011;49403;51.046;13.780;2022-11-18T01:41:59;18.63;;;10.80;;
63276;SDS011;49403;51.046;13.780;2022-11-18T01:42:29;18.48;;;10.90;;
63276;SDS011;49403;51.046;13.780;2022-11-18T01:43:00;19.17;;;11.02;;
63276;SDS011;49403;51.046;13.780;2022-11-18T01:43:46;19.30;;;11.00;;
63276;SDS011;49403;51.046;13.780;2022-11-18T01:46:04;16.77;;;9.55;;
63276;SDS011;49403;51.046;13.780;2022-11-18T01:46:35;20.50;;;10.75;;
63276;SDS011;49403;51.046;13.780;2022-11-18T01:47:05;16.80;;;10.32;;
63276;SDS011;49403;51.046;13.780;2022-11-18T01:47:41;19.00;;;10.45;;
63276;SDS011;49403;51.046;13.780;2022-11-18T01:48:53;18.90;;;10.32;;
63276;SDS011;49403;51.046;13.780;2022-11-18T01:49:28;17.50;;;10.48;;
63276;SDS011;49403;51.046;13.780;2022-11-18T01:49:59;18.13;;;10.60;;
63276;SDS011;49403;51.046;13.780;2022-11-18T01:50:30;16.02;;;10.02;;
63276;SDS011;49403;51.046;13.780;2022-11-18T01:51:04;16.45;;;10.10;;
63276;SDS011;49403;51.046;13.780;2022-11-18T01:51:41;19.55;;;10.75;;
63276;SDS011;49403;51.046;13.780;2022-11-18T01:52:15;19.75;;;10.63;;
63276;SDS011;49403;51.046;13.780;2022-11-18T01:52:46;17.35;;;10.38;;
63276;SDS011;49403;51.046;13.780;2022-11-18T01:53:20;16.08;;;10.10;;
63276;SDS011;49403;51.046;13.780;2022-11-18T01:53:56;18.23;;;10.32;;
63276;SDS011;49403;51.046;13.780;2022-11-18T01:54:35;17.05;;;10.35;;
63276;SDS011;49403;51.046;13.780;2022-11-18T01:55:12;18.60;;;10.38;;
63276;SDS011;49403;51.046;13.780;2022-11-18T01:55:51;18.27;;;10.40;;
63276;SDS011;49403;51.046;13.780;2022-11-18T01:56:28;15.77;;;10.02;;
63276;SDS011;49403;51.046;13.780;2022-11-18T01:57:11;19.65;;;10.40;;
63276;SDS011;49403;51.046;13.780;2022-11-18T01:57:46;19.73;;;9.85;;
63276;SDS011;49403;51.046;13.780;2022-11-18T01:58:28;19.38;;;10.70;;
63276;SDS011;49403;51.046;13.780;2022-11-18T01:59:05;18.02;;;10.40;;
63276;SDS011;49403;51.046;13.780;2022-11-18T01:59:40;16.27;;;10.20;;
63276;SDS011;49403;51.046;13.780;2022-11-18T02:00:13;18.40;;;10.45;;
63276;SDS011;49403;51.046;13.780;2022-11-18T02:00:44;18.98;;;10.95;;
63276;SDS011;49403;51.046;13.780;2022-11-18T02:01:14;16.30;;;10.00;;
63276;SDS011;49403;51.046;13.780;2022-11-18T02:01:45;16.08;;;10.70;;
63276;SDS011;49403;51.046;13.780;2022-11-18T02:02:16;17.80;;;10.52;;
63276;SDS011;49403;51.046;13.780;2022-11-18T02:02:47;16.13;;;10.75;;
63276;SDS011;49403;51.046;13.780;2022-11-18T02:03:18;18.92;;;10.48;;
63276;SDS011;49403;51.046;13.780;2022-11-18T02:03:50;17.45;;;10.20;;
63276;SDS011;49403;51.046;13.780;2022-11-18T02:04:22;17.20;;;10.73;;
63276;SDS011;49403;51.046;13.780;2022-11-18T02:04:55;17.60;;;10.27;;
63276;SDS011;49403;51.046;13.780;2022-11-18T02:05:27;15.38;;;9.65;;
63276;SDS011;49403;51.046;13.780;2022-11-18T02:05:59;16.92;;;10.80;;
63276;SDS011;49403;51.046;13.780;2022-11-18T02:06:32;16.50;;;10.00;;
63276;SDS011;49403;51.046;13.780;2022-11-18T02:07:03;17.90;;;10.63;;
63276;SDS011;49403;51.046;13.780;2022-11-18T02:07:38;18.20;;;10.73;;
63276;SDS011;49403;51.046;13.780;2022-11-18T02:08:12;19.05;;;11.07;;
63276;SDS011;49403;51.046;13.780;2022-11-18T02:08:44;18.45;;;10.40;;
63276;SDS011;49403;51.046;13.780;2022-11-18T02:09:15;17.88;;;10.10;;
63276;SDS011;49403;51.046;13.780;2022-11-18T02:09:46;16.45;;;10.02;;
63276;SDS011;49403;51.046;13.780;2022-11-18T02:10:18;18.35;;;9.93;;
63276;SDS011;49403;51.046;13.780;2022-11-18T02:10:51;16.80;;;10.18;;
63276;SDS011;49403;51.046;13.780;2022-11-18T02:11:21;16.58;;;10.38;;
63276;SDS011;49403;51.046;13.780;2022-11-18T02:12:11;16.13;;;9.75;;
63276;SDS011;49403;51.046;13.780;2022-11-18T02:12:42;16.30;;;9.75;;
63276;SDS011;49403;51.046;13.780;2022-11-18T02:13:13;16.83;;;10.40;;
63276;SDS011;49403;51.046;13.780;2022-11-18T02:13:44;15.98;;;9.90;;
63276;SDS011;49403;51.046;13.780;2022-11-18T02:14:54;15.95;;;9.65;;
63276;SDS011;49403;51.046;13.780;2022-11-18T02:16:19;15.35;;;9.60;;
63276;SDS011;49403;51.046;13.780;2022-11-18T02:17:20;17.63;;;9.60;;
63276;SDS011;49403;51.046;13.780;2022-11-18T02:18:07;18.27;;;9.75;;
63276;SDS011;49403;51.046;13.780;2022-11-18T02:18:43;16.70;;;9.68;;
63276;SDS011;49403;51.046;13.780;2022-11-18T02:21:27;15.77;;;9.40;;
63276;SDS011;49403;51.046;13.780;2022-11-18T02:23:25;17.23;;;10.23;;
63276;SDS011;49403;51.046;13.780;2022-11-18T02:28:35;16.52;;;9.60;;
63276;SDS011;49403;51.046;13.780;2022-11-18T02:29:07;18.92;;;10.13;;
63276;SDS011;49403;51.046;13.780;2022-11-18T02:29:50;17.13;;;9.70;;
63276;SDS011;49403;51.046;13.780;2022-11-18T02:30:56;17.80;;;10.07;;
63276;SDS011;49403;51.046;13.780;2022-11-18T02:32:33;17.02;;;9.80;;
63276;SDS011;49403;51.046;13.780;2022-11-18T02:33:07;18.60;;;9.75;;
63276;SDS011;49403;51.046;13.780;2022-11-18T02:33:51;15.85;;;9.93;;
63276;SDS011;49403;51.046;13.780;2022-11-18T02:35:23;17.13;;;9.60;;
63276;SDS011;49403;51.046;13.780;2022-11-18T02:36:05;18.13;;;10.20;;
63276;SDS011;49403;51.046;13.780;2022-11-18T02:37:35;15.98;;;9.40;;
63276;SDS011;49403;51.046;13.780;2022-11-18T02:38:15;16.77;;;9.93;;
63276;SDS011;49403;51.046;13.780;2022-11-18T02:38:52;19.85;;;10.50;;
63276;SDS011;49403;51.046;13.780;2022-11-18T02:39:29;17.88;;;10.60;;
63276;SDS011;49403;51.046;13.780;2022-11-18T02:40:06;14.13;;;9.48;;
63276;SDS011;49403;51.046;13.780;2022-11-18T02:40:44;17.35;;;10.48;;
63276;SDS011;49403;51.046;13.780;2022-11-18T02:41:21;15.82;;;9.65;;
63276;SDS011;49403;51.046;13.780;2022-11-18T02:41:55;16.23;;;9.80;;
63276;SDS011;49403;51.046;13.780;2022-11-18T02:42:28;18.05;;;9.88;;
63276;SDS011;49403;51.046;13.780;2022-11-18T02:43:10;16.48;;;9.90;;
63276;SDS011;49403;51.046;13.780;2022-11-18T02:43:58;18.58;;;10.60;;
63276;SDS011;49403;51.046;13.780;2022-11-18T02:44:41;15.23;;;9.30;;
63276;SDS011;49403;51.046;13.780;2022-11-18T02:45:17;18.23;;;10.15;;
63276;SDS011;49403;51.046;13.780;2022-11-18T02:45:51;16.55;;;10.18;;
63276;SDS011;49403;51.046;13.780;2022-11-18T02:46:28;16.00;;;9.32;;
63276;SDS011;49403;51.046;13.780;2022-11-18T02:47:04;17.15;;;10.07;;
63276;SDS011;49403;51.046;13.780;2022-11-18T02:47:37;19.50;;;10.18;;
63276;SDS011;49403;51.046;13.780;2022-11-18T02:48:12;16.50;;;10.07;;
63276;SDS011;49403;51.046;13.780;2022-11-18T02:48:47;15.85;;;9.60;;
63276;SDS011;49403;51.046;13.780;2022-11-18T02:49:23;17.25;;;9.80;;
63276;SDS011;49403;51.046;13.780;2022-11-18T02:50:02;14.77;;;9.63;;
63276;SDS011;49403;51.046;13.780;2022-11-18T02:50:37;16.08;;;9.48;;
63276;SDS011;49403;51.046;13.780;2022-11-18T02:51:12;17.83;;;9.73;;
63276;SDS011;49403;51.046;13.780;2022-11-18T02:51:47;15.18;;;9.73;;
63276;SDS011;49403;51.046;13.780;2022-11-18T02:52:20;19.90;;;10.20;;
63276;SDS011;49403;51.046;13.780;2022-11-18T02:52:54;15.25;;;9.68;;
63276;SDS011;49403;51.046;13.780;2022-11-18T02:53:28;17.15;;;9.70;;
63276;SDS011;49403;51.046;13.780;2022-11-18T02:54:02;16.75;;;9.77;;
63276;SDS011;49403;51.046;13.780;2022-11-18T02:54:38;15.63;;;9.63;;
63276;SDS011;49403;51.046;13.780;2022-11-18T02:55:11;16.83;;;9.85;;
63276;SDS011;49403;51.046;13.780;2022-11-18T02:55:43;14.85;;;9.40;;
63276;SDS011;49403;51.046;13.780;2022-11-18T02:56:16;16.98;;;9.75;;
63276;SDS011;49403;51.046;13.780;2022-11-18T02:56:49;15.50;;;9.68;;
63276;SDS011;49403;51.046;13.780;2022-11-18T02:57:21;16.73;;;9.55;;
63276;SDS011;49403;51.046;13.780;2022-11-18T02:57:54;17.75;;;10.18;;
63276;SDS011;49403;51.046;13.780;2022-11-18T02:58:26;17.27;;;9.82;;
63276;SDS011;49403;51.046;13.780;2022-11-18T02:58:57;18.65;;;10.70;;
63276;SDS011;49403;51.046;13.780;2022-11-18T02:59:28;17.23;;;9.95;;
63276;SDS011;49403;51.046;13.780;2022-11-18T02:59:58;14.90;;;9.73;;
63276;SDS011;49403;51.046;13.780;2022-11-18T03:00:30;17.73;;;10.60;;
63276;SDS011;49403;51.046;13.780;2022-11-18T03:01:01;19.90;;;10.25;;
63276;SDS011;49403;51.046;13.780;2022-11-18T03:01:32;17.20;;;10.55;;
63276;SDS011;49403;51.046;13.780;2022-11-18T03:02:05;15.40;;;9.65;;
63276;SDS011;49403;51.046;13.780;2022-11-18T03:02:46;16.63;;;9.85;;
63276;SDS011;49403;51.046;13.780;2022-11-18T03:03:22;16.38;;;9.95;;
63276;SDS011;49403;51.046;13.780;2022-11-18T03:03:58;17.25;;;9.63;;
63276;SDS011;49403;51.046;13.780;2022-11-18T03:04:29;16.92;;;10.05;;
63276;SDS011;49403;51.046;13.780;2022-11-18T03:05:01;15.38;;;9.57;;
63276;SDS011;49403;51.046;13.780;2022-11-18T03:05:38;17.27;;;10.43;;
63276;SDS011;49403;51.046;13.780;2022-11-18T03:06:34;17.63;;;9.80;;
63276;SDS011;49403;51.046;13.780;2022-11-18T03:08:08;19.45;;;9.45;;
63276;SDS011;49403;51.046;13.780;2022-11-18T03:08:44;16.33;;;9.23;;
63276;SDS011;49403;51.046;13.780;2022-11-18T03:09:30;14.77;;;9.68;;
63276;SDS011;49403;51.046;13.780;2022-11-18T03:10:04;15.30;;;9.35;;
63276;SDS011;49403;51.046;13.780;2022-11-18T03:10:39;15.75;;;9.73;;
63276;SDS011;49403;51.046;13.780;2022-11-18T03:11:16;14.98;;;9.00;;
63276;SDS011;49403;51.046;13.780;2022-11-18T03:13:51;14.23;;;8.77;;
63276;SDS011;49403;51.046;13.780;2022-11-18T03:16:17;16.38;;;9.40;;
63276;SDS011;49403;51.046;13.780;2022-11-18T03:16:59;15.95;;;9.38;;
63276;SDS011;49403;51.046;13.780;2022-11-18T03:18:28;17.90;;;9.25;;
63276;SDS011;49403;51.046;13.780;2022-11-18T03:20:17;19.25;;;9.85;;
63276;SDS011;49403;51.046;13.780;2022-11-18T03:22:29;16.65;;;9.68;;
63276;SDS011;49403;51.046;13.780;2022-11-18T03:23:07;15.68;;;9.05;;
63276;SDS011;49403;51.046;13.780;2022-11-18T03:24:15;15.95;;;9.30;;
63276;SDS011;49403;51.046;13.780;2022-11-18T03:24:49;14.95;;;8.82;;
63276;SDS011;49403;51.046;13.780;2022-11-18T03:26:29;17.33;;;9.38;;
63276;SDS011;49403;51.046;13.780;2022-11-18T03:27:14;17.00;;;9.85;;
63276;SDS011;49403;51.046;13.780;2022-11-18T03:28:01;15.60;;;9.45;;
63276;SDS011;49403;51.046;13.780;2022-11-18T03:28:41;14.68;;;8.80;;
63276;SDS011;49403;51.046;13.780;2022-11-18T03:29:17;15.57;;;9.45;;
63276;SDS011;49403;51.046;13.780;2022-11-18T03:30:00;17.48;;;10.10;;
63276;SDS011;49403;51.046;13.780;2022-11-18T03:30:37;14.73;;;9.38;;
63276;SDS011;49403;51.046;13.780;2022-11-18T03:31:20;17.00;;;9.52;;
63276;SDS011;49403;51.046;13.780;2022-11-18T03:31:56;15.45;;;9.55;;
63276;SDS011;49403;51.046;13.780;2022-11-18T03:32:32;15.70;;;9.38;;
63276;SDS011;49403;51.046;13.780;2022-11-18T03:33:12;16.08;;;9.90;;
63276;SDS011;49403;51.046;13.780;2022-11-18T03:33:49;16.63;;;9.90;;
63276;SDS011;49403;51.046;13.780;2022-11-18T03:35:00;16.58;;;9.73;;
63276;SDS011;49403;51.046;13.780;2022-11-18T03:35:35;18.98;;;10.32;;
63276;SDS011;49403;51.046;13.780;2022-11-18T03:36:11;16.92;;;9.50;;
63276;SDS011;49403;51.046;13.780;2022-11-18T03:36:49;15.35;;;9.75;;
63276;SDS011;49403;51.046;13.780;2022-11-18T03:37:23;17.90;;;9.75;;
63276;SDS011;49403;51.046;13.780;2022-11-18T03:37:59;15.60;;;9.82;;
63276;SDS011;49403;51.046;13.780;2022-11-18T03:38:39;15.68;;;9.63;;
63276;SDS011;49403;51.046;13.780;2022-11-18T03:39:19;15.85;;;9.50;;
63276;SDS011;49403;51.046;13.780;2022-11-18T03:39:52;14.90;;;9.70;;
63276;SDS011;49403;51.046;13.780;2022-11-18T03:40:29;15.93;;;9.98;;
63276;SDS011;49403;51.046;13.780;2022-11-18T03:41:03;15.82;;;9.73;;
63276;SDS011;49403;51.046;13.780;2022-11-18T03:41:38;17.27;;;9.77;;